Time;durP1;ratioP1;P1;durP2;ratioP2;P2;SDS_P1;SDS_P2;PMS_P1;PMS_P2;Temp;Humidity;BMP_temperature;BMP_pressure;BME280_temperature;BME280_humidity;BME280_pressure;Samples;Min_cycle;Max_cycle;Signal;HPM_P1;HPM_P2
2022/01/28 00:00:29;;;;;;;10.95;1.15;;;3.80;99.90;;;;;;5043546;28;20060;-72
2022/01/28 00:03:00;;;;;;;19.52;1.40;;;3.80;99.90;;;;;;5057866;28;20361;-72
2022/01/28 00:05:26;;;;;;;17.17;1.15;;;3.90;99.90;;;;;;5027177;28;20064;-72
2022/01/28 00:07:53;;;;;;;19.08;1.38;;;4.00;99.90;;;;;;5041242;28;20048;-72
2022/01/28 00:10:22;;;;;;;13.95;1.00;;;4.10;99.90;;;;;;5041641;28;20052;-73
2022/01/28 00:15:27;;;;;;;17.55;1.40;;;4.00;99.90;;;;;;5057623;28;20059;-74
2022/01/28 00:36:59;;;;;;;18.35;1.80;;;4.10;99.90;;;;;;5060400;28;20060;-72
2022/01/28 00:39:25;;;;;;;21.42;1.85;;;4.20;99.90;;;;;;5056945;28;20059;-72
2022/01/28 00:41:51;;;;;;;16.42;1.90;;;4.10;99.90;;;;;;5075085;28;20055;-72
2022/01/28 00:44:17;;;;;;;22.88;1.52;;;4.10;99.90;;;;;;5057207;28;20048;-72
2022/01/28 00:46:43;;;;;;;24.50;1.52;;;4.00;99.90;;;;;;5057369;28;20501;-72
2022/01/28 00:49:09;;;;;;;30.65;2.40;;;4.00;99.90;;;;;;5057388;28;20048;-71
2022/01/28 00:51:34;;;;;;;23.45;2.45;;;4.00;99.90;;;;;;5057318;28;20070;-72
2022/01/28 00:54:00;;;;;;;24.13;1.58;;;3.90;99.90;;;;;;5056702;28;20051;-72
2022/01/28 00:56:26;;;;;;;21.15;1.50;;;3.90;99.90;;;;;;5056724;28;20056;-74
2022/01/28 00:58:52;;;;;;;23.88;1.48;;;3.90;99.90;;;;;;5057601;28;20052;-72
2022/01/28 01:01:17;;;;;;;27.45;2.65;;;3.80;99.90;;;;;;5074555;28;20063;-71
2022/01/28 01:03:43;;;;;;;19.55;1.48;;;3.90;99.90;;;;;;5056170;28;20060;-72
2022/01/28 01:06:09;;;;;;;23.17;1.80;;;3.80;99.90;;;;;;5057341;28;20128;-72
2022/01/28 01:08:36;;;;;;;25.83;2.15;;;3.70;99.90;;;;;;5074500;28;20491;-72
2022/01/28 01:11:03;;;;;;;21.80;2.05;;;3.90;99.90;;;;;;5056571;28;20053;-72
2022/01/28 01:13:29;;;;;;;16.98;2.40;;;3.80;99.90;;;;;;5056233;28;20044;-73
2022/01/28 01:15:59;;;;;;;32.60;2.20;;;3.90;99.90;;;;;;5074409;28;20048;-72
2022/01/28 01:18:32;;;;;;;27.33;1.95;;;3.80;99.90;;;;;;5040440;28;20059;-72
2022/01/28 01:23:31;;;;;;;18.17;1.90;;;4.00;99.90;;;;;;5056096;28;20092;-73
2022/01/28 01:28:33;;;;;;;24.10;1.92;;;4.00;99.90;;;;;;5056227;28;20056;-73
2022/01/28 01:31:02;;;;;;;19.52;2.03;;;4.00;99.90;;;;;;5056391;28;20048;-71
2022/01/28 01:33:31;;;;;;;27.10;1.33;;;4.10;99.90;;;;;;5074111;28;20041;-73
2022/01/28 01:36:01;;;;;;;16.90;1.60;;;4.00;99.90;;;;;;5074139;28;20048;-71
2022/01/28 01:38:32;;;;;;;25.25;1.80;;;4.20;99.90;;;;;;5073853;28;20045;-72
2022/01/28 01:41:00;;;;;;;17.58;1.48;;;4.00;99.90;;;;;;5073991;28;20036;-72
2022/01/28 01:53:49;;;;;;;32.08;2.47;;;4.10;99.90;;;;;;5041872;28;20049;-72
2022/01/28 01:56:15;;;;;;;22.90;2.08;;;4.00;99.90;;;;;;5073643;28;20044;-72
2022/01/28 01:58:42;;;;;;;33.33;2.50;;;4.10;99.90;;;;;;5073453;28;20502;-72
2022/01/28 02:01:08;;;;;;;34.40;2.78;;;4.20;99.90;;;;;;5073254;28;20060;-72
2022/01/28 02:03:34;;;;;;;36.97;2.60;;;4.00;99.90;;;;;;5055756;28;20053;-73
2022/01/28 02:06:01;;;;;;;26.98;2.25;;;4.00;99.90;;;;;;5055899;28;20063;-73
2022/01/28 02:08:30;;;;;;;21.40;1.95;;;3.80;99.90;;;;;;5039277;28;20063;-73
2022/01/28 02:10:58;;;;;;;30.67;2.67;;;3.80;99.90;;;;;;5073312;28;20094;-72
2022/01/28 02:13:27;;;;;;;;;;;3.80;99.90;;;;;;5056104;28;20044;-72
2022/01/28 02:15:53;;;;;;;31.40;2.88;;;3.80;99.90;;;;;;5055209;28;20050;-72
2022/01/28 02:18:20;;;;;;;26.97;2.90;;;3.80;99.90;;;;;;5073220;28;20075;-72
2022/01/28 02:20:49;;;;;;;28.52;2.83;;;3.90;99.90;;;;;;5005877;28;20080;-72
2022/01/28 02:23:16;;;;;;;21.38;1.80;;;3.90;99.90;;;;;;5055543;28;20050;-73
2022/01/28 02:25:42;;;;;;;29.57;2.40;;;3.80;99.90;;;;;;5055670;28;20123;-72
2022/01/28 02:28:12;;;;;;;26.75;1.90;;;3.80;99.90;;;;;;5038277;28;20095;-72
2022/01/28 02:30:38;;;;;;;23.60;2.17;;;3.80;99.90;;;;;;5055012;28;20040;-74
2022/01/28 02:35:38;;;;;;;29.40;2.58;;;3.80;99.90;;;;;;5039993;28;20062;-74
2022/01/28 02:38:04;;;;;;;30.98;2.22;;;3.90;99.90;;;;;;5072818;28;20080;-74
2022/01/28 02:40:31;;;;;;;20.90;1.25;;;4.10;99.90;;;;;;5055053;28;20059;-74
2022/01/28 02:45:30;;;;;;;19.05;1.20;;;4.00;99.90;;;;;;5073177;28;20413;-73
2022/01/28 02:48:03;;;;;;;27.60;2.08;;;3.90;99.90;;;;;;5055057;28;20122;-72
2022/01/28 02:50:34;;;;;;;26.55;2.22;;;3.80;99.90;;;;;;5038628;28;20083;-72
2022/01/28 02:53:09;;;;;;;29.35;1.70;;;3.80;99.90;;;;;;5038331;28;20043;-73
2022/01/28 02:55:40;;;;;;;19.33;1.85;;;3.80;99.90;;;;;;5073018;28;20044;-72
2022/01/28 02:58:19;;;;;;;16.27;1.23;;;3.80;99.90;;;;;;5038829;28;20056;-73
2022/01/28 03:00:47;;;;;;;17.90;1.40;;;3.70;99.90;;;;;;5056382;28;20407;-73
2022/01/28 03:03:14;;;;;;;21.92;1.52;;;3.60;99.90;;;;;;5054335;28;20052;-73
2022/01/28 03:05:40;;;;;;;;;;;3.60;99.90;;;;;;5038684;28;20469;-74
2022/01/28 03:08:06;;;;;;;22.83;2.08;;;3.70;99.90;;;;;;5054686;28;19920;-74
2022/01/28 03:15:35;;;;;;;26.55;1.70;;;3.80;99.90;;;;;;5039204;28;20091;-72
2022/01/28 03:20:42;;;;;;;27.02;2.78;;;3.90;99.90;;;;;;5054941;28;20401;-73
2022/01/28 03:23:08;;;;;;;20.88;1.60;;;3.90;99.90;;;;;;5038303;28;20040;-74
2022/01/28 03:25:36;;;;;;;28.02;1.90;;;4.00;99.90;;;;;;5037752;28;20048;-73
2022/01/28 03:28:02;;;;;;;19.98;2.08;;;4.00;99.90;;;;;;5054955;28;20048;-73
2022/01/28 03:30:28;;;;;;;30.33;3.00;;;4.00;99.90;;;;;;5072438;28;20364;-72
2022/01/28 03:32:54;;;;;;;21.42;1.55;;;4.10;99.90;;;;;;5072124;28;20055;-73
2022/01/28 03:35:20;;;;;;;30.23;2.30;;;4.10;99.90;;;;;;5021700;28;20090;-73
2022/01/28 03:37:46;;;;;;;16.50;1.02;;;4.20;99.90;;;;;;5037573;28;20481;-74
2022/01/28 03:40:13;;;;;;;26.23;2.58;;;4.20;99.90;;;;;;5072428;28;20045;-73
2022/01/28 03:42:39;;;;;;;26.38;3.03;;;4.30;99.90;;;;;;5072199;28;20469;-72
2022/01/28 03:45:06;;;;;;;26.77;3.63;;;4.40;99.90;;;;;;5054796;28;20087;-72
2022/01/28 03:47:32;;;;;;;27.90;1.83;;;4.20;99.90;;;;;;5037957;28;20052;-73
2022/01/28 03:49:57;;;;;;;26.02;2.20;;;4.30;99.90;;;;;;5072754;28;20388;-73
2022/01/28 03:52:23;;;;;;;27.75;1.67;;;4.30;99.90;;;;;;5055019;28;20056;-72
2022/01/28 03:54:49;;;;;;;33.35;3.40;;;4.30;99.90;;;;;;5037307;28;20044;-72
2022/01/28 03:57:15;;;;;;;22.48;1.35;;;4.40;99.90;;;;;;5037258;28;20047;-73
2022/01/28 03:59:40;;;;;;;23.50;1.67;;;4.40;99.90;;;;;;5037493;28;20067;-72
2022/01/28 04:02:07;;;;;;;26.23;2.28;;;4.40;99.90;;;;;;5072110;28;20037;-73
2022/01/28 04:12:38;;;;;;;23.95;1.65;;;4.30;99.90;;;;;;5054857;28;20052;-73
2022/01/28 04:15:18;;;;;;;38.90;2.45;;;4.20;99.90;;;;;;5072016;28;20040;-73
2022/01/28 04:17:45;;;;;;;28.02;2.33;;;4.40;99.90;;;;;;5072465;28;20052;-73
2022/01/28 04:20:11;;;;;;;18.40;1.98;;;4.50;99.90;;;;;;5053968;28;20040;-73
2022/01/28 04:22:36;;;;;;;25.52;2.85;;;4.50;99.90;;;;;;5021088;28;20108;-73
2022/01/28 04:25:03;;;;;;;18.35;1.77;;;4.60;99.90;;;;;;5055727;28;20052;-73
2022/01/28 04:27:29;;;;;;;21.20;1.77;;;4.60;99.90;;;;;;5041065;28;20048;-72
2022/01/28 04:29:54;;;;;;;23.65;1.90;;;4.50;99.90;;;;;;5041309;28;20063;-73
2022/01/28 04:32:21;;;;;;;26.92;2.70;;;4.50;99.90;;;;;;5075270;28;20048;-71
2022/01/28 04:34:47;;;;;;;28.63;1.80;;;4.50;99.90;;;;;;5075213;28;20404;-72
2022/01/28 04:45:06;;;;;;;29.98;2.67;;;4.20;99.90;;;;;;5057445;28;20044;-73
2022/01/28 04:50:28;;;;;;;17.58;1.63;;;4.20;99.90;;;;;;5057792;28;20048;-73
2022/01/28 04:53:26;;;;;;;25.27;1.80;;;4.20;99.90;;;;;;5075043;28;20048;-74
2022/01/28 05:06:34;;;;;;;24.98;1.73;;;4.50;99.90;;;;;;5040208;28;20080;-73
2022/01/28 05:12:31;;;;;;;29.17;2.78;;;4.60;99.90;;;;;;5057342;28;20098;-72
2022/01/28 05:28:23;;;;;;;39.58;3.05;;;4.80;99.90;;;;;;5012471;28;20052;-73
2022/01/28 05:30:49;;;;;;;21.58;2.47;;;4.80;99.90;;;;;;5041989;28;20048;-72
2022/01/28 05:33:15;;;;;;;30.88;3.17;;;4.70;99.90;;;;;;5039306;28;20098;-72
2022/01/28 05:35:41;;;;;;;21.50;2.53;;;4.90;99.90;;;;;;5072947;28;20538;-72
2022/01/28 05:38:06;;;;;;;33.22;3.10;;;4.80;99.90;;;;;;5073869;28;20098;-74
2022/01/28 05:40:32;;;;;;;24.35;1.92;;;4.90;99.90;;;;;;5023021;28;20045;-73
2022/01/28 05:42:58;;;;;;;36.97;3.05;;;4.90;99.90;;;;;;5056395;28;20048;-73
2022/01/28 05:45:24;;;;;;;25.20;2.35;;;4.90;99.90;;;;;;5074125;28;20072;-73
2022/01/28 05:47:49;;;;;;;22.40;2.78;;;4.90;99.90;;;;;;5039352;28;20048;-73
2022/01/28 05:50:15;;;;;;;32.33;2.80;;;4.90;99.90;;;;;;5073846;28;20048;-73
2022/01/28 05:52:41;;;;;;;21.25;1.90;;;4.90;99.90;;;;;;5055716;28;20189;-72
2022/01/28 05:55:07;;;;;;;24.83;2.85;;;4.90;99.90;;;;;;5073536;28;20087;-73
2022/01/28 05:57:33;;;;;;;37.75;3.20;;;4.90;99.90;;;;;;5056281;28;20045;-72
2022/01/28 05:59:58;;;;;;;20.65;2.72;;;4.90;99.90;;;;;;5055707;28;20067;-73
2022/01/28 06:02:24;;;;;;;37.33;2.95;;;4.90;99.90;;;;;;5073808;28;20365;-74
2022/01/28 06:04:50;;;;;;;24.23;2.63;;;4.70;99.90;;;;;;5039118;28;20040;-73
2022/01/28 06:07:16;;;;;;;25.25;1.92;;;4.70;99.90;;;;;;5055371;28;20055;-72
2022/01/28 06:09:42;;;;;;;29.05;3.05;;;4.60;99.90;;;;;;5055226;28;20044;-72
2022/01/28 06:12:08;;;;;;;29.88;2.38;;;4.50;99.90;;;;;;5073408;28;20040;-74
2022/01/28 06:14:34;;;;;;;27.60;3.00;;;4.50;99.90;;;;;;5055415;28;20041;-73
2022/01/28 06:17:00;;;;;;;38.88;3.58;;;4.30;99.90;;;;;;5039474;28;20131;-72
2022/01/28 06:19:26;;;;;;;26.35;2.22;;;4.30;99.90;;;;;;5055243;28;20131;-73
2022/01/28 06:21:51;;;;;;;41.53;3.05;;;4.30;99.90;;;;;;5039600;28;20052;-72
2022/01/28 06:24:17;;;;;;;31.35;2.22;;;4.20;99.90;;;;;;5038693;28;20508;-72
2022/01/28 06:26:43;;;;;;;27.55;2.08;;;4.10;99.90;;;;;;5055326;28;20127;-72
2022/01/28 06:29:10;;;;;;;29.70;2.35;;;3.90;99.90;;;;;;5038639;28;20040;-73
2022/01/28 06:31:36;;;;;;;29.67;2.10;;;3.90;99.90;;;;;;5073201;28;20045;-73
2022/01/28 06:34:01;;;;;;;33.95;2.42;;;3.70;99.90;;;;;;5055209;28;20123;-73
2022/01/28 06:36:27;;;;;;;24.20;2.90;;;3.70;99.90;;;;;;5055206;28;20540;-73
2022/01/28 06:38:53;;;;;;;24.98;2.15;;;3.50;99.90;;;;;;5055108;28;20044;-73
2022/01/28 06:41:19;;;;;;;39.13;3.40;;;3.40;99.90;;;;;;5038413;28;20426;-73
2022/01/28 06:43:44;;;;;;;29.42;2.47;;;3.50;99.90;;;;;;5072819;28;20052;-74
2022/01/28 06:46:10;;;;;;;24.20;2.38;;;3.60;99.90;;;;;;5055140;28;20051;-73
2022/01/28 06:48:36;;;;;;;22.00;2.53;;;3.50;99.90;;;;;;5054828;28;20048;-73
2022/01/28 06:51:02;;;;;;;31.42;1.80;;;3.70;99.90;;;;;;5055405;28;20487;-72
2022/01/28 06:53:27;;;;;;;21.67;2.10;;;3.70;99.90;;;;;;5054640;28;20051;-75
2022/01/28 06:55:53;;;;;;;27.58;2.58;;;3.70;99.90;;;;;;5072741;28;20047;-72
2022/01/28 06:58:19;;;;;;;29.38;2.63;;;3.90;99.90;;;;;;5055101;28;20131;-73
2022/01/28 07:00:44;;;;;;;27.83;2.65;;;4.00;99.90;;;;;;5072215;28;20059;-72
2022/01/28 07:03:14;;;;;;;33.20;2.35;;;4.10;99.90;;;;;;5054580;28;20110;-73
2022/01/28 07:05:40;;;;;;;25.15;2.50;;;4.10;99.90;;;;;;5072801;28;20044;-73
2022/01/28 07:08:07;;;;;;;30.83;2.23;;;4.10;99.90;;;;;;5054769;28;20052;-74
2022/01/28 07:10:34;;;;;;;27.80;2.87;;;4.00;99.90;;;;;;5054853;28;20113;-73
2022/01/28 07:13:00;;;;;;;31.05;2.65;;;4.00;99.90;;;;;;5038329;28;20131;-74
2022/01/28 07:15:28;;;;;;;29.47;2.60;;;3.90;99.90;;;;;;5038151;28;20049;-72
2022/01/28 07:17:55;;;;;;;27.25;3.13;;;3.80;99.90;;;;;;5072269;28;20401;-72
2022/01/28 07:20:22;;;;;;;22.55;2.25;;;3.80;99.90;;;;;;5054931;28;20049;-72
2022/01/28 07:22:48;;;;;;;20.13;2.25;;;3.80;99.90;;;;;;5038311;28;20048;-72
2022/01/28 07:25:14;;;;;;;22.33;2.30;;;3.80;99.90;;;;;;5072439;28;20080;-72
2022/01/28 07:27:40;;;;;;;24.48;2.63;;;3.80;99.90;;;;;;5054730;28;20076;-73
2022/01/28 07:30:07;;;;;;;32.55;3.42;;;3.70;99.90;;;;;;5054564;28;20100;-73
2022/01/28 07:32:33;;;;;;;20.25;2.08;;;3.70;99.90;;;;;;5055391;28;20056;-73
2022/01/28 07:34:58;;;;;;;24.20;2.72;;;3.80;99.90;;;;;;5054148;28;20036;-72
2022/01/28 07:37:24;;;;;;;23.30;1.70;;;3.80;99.90;;;;;;5054672;28;20106;-72
2022/01/28 07:39:50;;;;;;;23.30;2.05;;;3.80;99.90;;;;;;5054606;28;20049;-73
2022/01/28 07:42:17;;;;;;;20.00;1.77;;;3.70;99.90;;;;;;5072361;28;20076;-74
2022/01/28 07:44:44;;;;;;;25.88;2.30;;;3.80;99.90;;;;;;5072429;28;20064;-73
2022/01/28 07:47:10;;;;;;;26.33;2.30;;;3.70;99.90;;;;;;5072411;28;20049;-73
2022/01/28 07:49:36;;;;;;;29.70;2.47;;;3.80;99.90;;;;;;5072251;28;20072;-73
2022/01/28 07:52:03;;;;;;;20.48;2.33;;;3.80;99.90;;;;;;5072523;28;20727;-74
2022/01/28 07:54:29;;;;;;;35.20;2.90;;;;;;;;;;5054448;28;20051;-73
2022/01/28 07:56:55;;;;;;;36.00;2.58;;;3.90;99.90;;;;;;5072633;28;20037;-73
2022/01/28 07:59:21;;;;;;;29.88;3.03;;;4.00;99.90;;;;;;5055784;28;20044;-73
2022/01/28 08:01:47;;;;;;;23.90;2.97;;;4.00;99.90;;;;;;5058742;28;20441;-73
2022/01/28 08:04:13;;;;;;;27.05;2.90;;;4.00;99.90;;;;;;5041401;28;20045;-74
2022/01/28 08:06:39;;;;;;;24.30;2.20;;;4.10;99.90;;;;;;5058458;28;20182;-72
2022/01/28 08:09:05;;;;;;;29.70;3.30;;;4.10;99.90;;;;;;5076624;28;20483;-72
2022/01/28 08:11:31;;;;;;;21.58;2.20;;;4.00;99.90;;;;;;5058006;28;20133;-72
2022/01/28 08:13:58;;;;;;;22.63;3.15;;;4.10;99.90;;;;;;5041279;28;20037;-72
2022/01/28 08:16:23;;;;;;;22.77;3.10;;;4.10;99.90;;;;;;5075647;28;20345;-72
2022/01/28 08:18:49;;;;;;;31.60;3.85;;;4.10;99.90;;;;;;5057779;28;20131;-72
2022/01/28 08:21:16;;;;;;;31.55;3.78;;;4.20;99.90;;;;;;5057560;28;20049;-73
2022/01/28 08:23:42;;;;;;;35.97;2.92;;;4.10;99.90;;;;;;5058102;28;20055;-73
2022/01/28 08:26:08;;;;;;;29.15;3.03;;;4.10;99.90;;;;;;5041082;28;20538;-73
2022/01/28 08:28:35;;;;;;;17.53;2.03;;;4.10;99.90;;;;;;5024499;28;20113;-73
2022/01/28 08:31:01;;;;;;;27.58;3.38;;;4.10;99.90;;;;;;5075592;28;20055;-73
2022/01/28 08:33:27;;;;;;;26.30;2.95;;;4.00;99.90;;;;;;5040989;28;20120;-73
2022/01/28 08:35:54;;;;;;;26.30;4.13;;;4.00;99.90;;;;;;5057612;28;20057;-72
2022/01/28 08:38:26;;;;;;;27.88;2.75;;;4.00;99.90;;;;;;5074834;28;20049;-72
2022/01/28 08:40:54;;;;;;;28.42;3.15;;;3.80;99.90;;;;;;5041484;28;20494;-73
2022/01/28 08:43:20;;;;;;;25.70;2.88;;;3.80;99.90;;;;;;5075279;28;20045;-73
2022/01/28 08:45:47;;;;;;;25.42;2.33;;;3.70;99.90;;;;;;5041629;28;20463;-72
2022/01/28 08:48:13;;;;;;;31.50;2.67;;;3.70;99.90;;;;;;5074930;28;20049;-73
2022/01/28 08:50:39;;;;;;;28.77;2.53;;;3.70;99.90;;;;;;5074820;28;20170;-73
2022/01/28 08:53:05;;;;;;;31.88;3.13;;;3.80;99.90;;;;;;5075750;28;20118;-74
2022/01/28 08:55:31;;;;;;;27.30;3.33;;;4.00;99.90;;;;;;5074863;28;20480;-72
2022/01/28 08:57:57;;;;;;;25.30;2.20;;;4.10;99.90;;;;;;5074933;28;20044;-72
2022/01/28 09:00:24;;;;;;;30.17;2.40;;;4.20;99.90;;;;;;5056594;28;20052;-73
2022/01/28 09:02:50;;;;;;;18.45;2.25;;;4.30;99.90;;;;;;5057077;28;20048;-73
2022/01/28 09:05:17;;;;;;;24.63;2.85;;;4.40;99.90;;;;;;5075217;28;20200;-74
2022/01/28 09:07:43;;;;;;;24.83;2.58;;;4.50;99.90;;;;;;5041023;28;20056;-74
2022/01/28 09:10:17;;;;;;;34.85;2.53;;;4.50;99.90;;;;;;5074980;28;20044;-74
2022/01/28 09:13:10;;;;;;;34.03;2.42;;;4.50;99.90;;;;;;5057240;28;20048;-73
2022/01/28 09:15:38;;;;;;;21.23;2.58;;;4.60;99.90;;;;;;5059116;28;20182;-72
2022/01/28 09:18:06;;;;;;;39.70;2.88;;;4.70;99.90;;;;;;5074750;28;20049;-72
2022/01/28 09:20:32;;;;;;;;;;;4.80;99.90;;;;;;5074796;28;20408;-73
2022/01/28 09:22:59;;;;;;;26.60;3.17;;;4.90;99.90;;;;;;5040018;28;19924;-73
2022/01/28 09:25:26;;;;;;;29.75;2.50;;;5.10;99.90;;;;;;5074419;28;20066;-72
2022/01/28 09:27:52;;;;;;;37.80;3.28;;;5.20;99.90;;;;;;5056683;28;20482;-73
2022/01/28 09:30:18;;;;;;;25.17;2.13;;;5.20;99.90;;;;;;5074922;28;20399;-73
2022/01/28 09:32:44;;;;;;;29.80;2.53;;;5.30;99.90;;;;;;5074929;28;20400;-73
2022/01/28 09:35:10;;;;;;;24.67;3.13;;;5.30;99.90;;;;;;5056333;28;20050;-74
2022/01/28 09:37:36;;;;;;;25.55;3.05;;;5.40;99.90;;;;;;5073928;28;20102;-72
2022/01/28 09:40:04;;;;;;;30.70;2.85;;;5.50;99.90;;;;;;5056280;28;20048;-73
2022/01/28 09:42:34;;;;;;;28.33;2.75;;;5.60;99.90;;;;;;5073709;28;20496;-75
2022/01/28 09:45:03;;;;;;;23.58;2.83;;;5.70;99.90;;;;;;5074304;28;20084;-73
2022/01/28 09:47:30;;;;;;;25.95;3.08;;;5.80;99.90;;;;;;5056036;28;20106;-72
2022/01/28 09:49:57;;;;;;;31.92;3.55;;;5.90;99.90;;;;;;5056445;28;20117;-75
2022/01/28 09:52:22;;;;;;;30.65;2.65;;;5.90;99.90;;;;;;5007228;28;20059;-75
2022/01/28 09:54:48;;;;;;;30.27;2.83;;;5.90;99.90;;;;;;5055730;28;20396;-74
2022/01/28 09:57:19;;;;;;;32.95;3.90;;;5.70;99.90;;;;;;5056087;28;20037;-73
2022/01/28 09:59:45;;;;;;;25.83;2.80;;;5.90;99.90;;;;;;5056259;28;20055;-73
2022/01/28 10:02:11;;;;;;;37.28;3.17;;;6.00;99.90;;;;;;5055839;28;20056;-72
2022/01/28 10:04:38;;;;;;;24.95;2.72;;;5.90;99.90;;;;;;5055394;28;20079;-74
2022/01/28 10:07:15;;;;;;;33.20;2.40;;;6.00;99.90;;;;;;5055624;28;20048;-72
2022/01/28 10:09:58;;;;;;;29.73;2.60;;;6.00;99.90;;;;;;5074228;28;20425;-73
2022/01/28 10:12:38;;;;;;;30.63;2.90;;;6.00;99.90;;;;;;5039122;28;20048;-72
2022/01/28 10:15:17;;;;;;;41.00;3.88;;;6.10;99.90;;;;;;5039662;28;20102;-72
2022/01/28 10:17:53;;;;;;;33.40;3.33;;;6.20;99.90;;;;;;5041062;28;20048;-73
2022/01/28 10:20:21;;;;;;;37.33;2.92;;;6.20;99.90;;;;;;5039569;28;20048;-72
2022/01/28 10:22:57;;;;;;;31.02;2.50;;;6.30;99.90;;;;;;5054736;28;20131;-72
2022/01/28 10:25:34;;;;;;;27.20;3.40;;;6.20;99.90;;;;;;5056268;28;20049;-74
2022/01/28 10:28:03;;;;;;;28.02;2.50;;;6.20;99.90;;;;;;5056222;28;20053;-74
2022/01/28 10:30:30;;;;;;;34.63;2.70;;;6.20;99.90;;;;;;5039327;28;20520;-75
2022/01/28 10:33:16;;;;;;;25.15;2.72;;;6.20;99.90;;;;;;5039231;28;20076;-73
2022/01/28 10:35:56;;;;;;;29.63;3.00;;;6.20;99.90;;;;;;5055435;28;20059;-73
2022/01/28 10:38:34;;;;;;;23.75;2.72;;;6.20;99.90;;;;;;5038615;28;20131;-73
2022/01/28 10:41:16;;;;;;;32.17;3.08;;;6.30;99.90;;;;;;5073136;28;20032;-73
2022/01/28 10:43:45;;;;;;;33.92;3.17;;;6.40;99.90;;;;;;5072943;28;20495;-72
2022/01/28 10:46:11;;;;;;;31.98;3.40;;;6.60;99.90;;;;;;5038884;28;20052;-73
2022/01/28 10:48:54;;;;;;;32.38;4.30;;;6.60;99.90;;;;;;5072995;28;20044;-73
2022/01/28 10:51:22;;;;;;;24.60;2.65;;;6.70;99.90;;;;;;5072717;28;20044;-73
2022/01/28 10:54:07;;;;;;;21.70;2.83;;;6.70;99.90;;;;;;5055216;28;20416;-72
2022/01/28 10:56:54;;;;;;;30.95;4.00;;;6.70;99.90;;;;;;5038252;28;20048;-74
2022/01/28 10:59:23;;;;;;;25.98;2.25;;;6.70;99.90;;;;;;5055307;28;20048;-74
2022/01/28 11:01:49;;;;;;;25.38;2.67;;;6.80;99.90;;;;;;5054633;28;20056;-72
2022/01/28 11:04:17;;;;;;;32.20;3.40;;;6.80;99.90;;;;;;5072479;28;20060;-72
2022/01/28 11:06:43;;;;;;;;;;;6.90;99.90;;;;;;5055248;28;20045;-73
2022/01/28 11:09:10;;;;;;;25.70;2.13;;;6.90;99.90;;;;;;5038518;28;19981;-73
2022/01/28 11:11:37;;;;;;;24.20;2.47;;;7.00;99.90;;;;;;5054771;28;20055;-75
2022/01/28 11:14:03;;;;;;;43.80;3.20;;;7.10;99.90;;;;;;5054945;28;20083;-73
2022/01/28 11:16:29;;;;;;;22.02;2.92;;;7.00;99.90;;;;;;5022089;28;20139;-72
2022/01/28 11:18:59;;;;;;;25.38;2.35;;;6.90;99.90;;;;;;5054668;28;20514;-73
2022/01/28 11:21:34;;;;;;;28.38;3.67;;;7.00;99.90;;;;;;5054822;28;20086;-73
2022/01/28 11:24:12;;;;;;;37.55;3.35;;;6.90;99.90;;;;;;5038571;28;20040;-74
2022/01/28 11:26:53;;;;;;;31.38;3.33;;;6.90;99.90;;;;;;5072960;28;20052;-74
2022/01/28 11:29:24;;;;;;;28.45;3.75;;;6.90;99.90;;;;;;5038155;28;20174;-74
2022/01/28 11:31:51;;;;;;;35.92;3.55;;;6.80;99.90;;;;;;5055098;28;20059;-72
2022/01/28 11:34:21;;;;;;;35.63;2.90;;;6.80;99.90;;;;;;5041303;28;20043;-73
2022/01/28 11:36:48;;;;;;;30.77;3.33;;;6.80;99.90;;;;;;5076866;28;20044;-73
2022/01/28 11:39:26;;;;;;;37.47;2.90;;;6.80;99.90;;;;;;5077187;28;20489;-74
2022/01/28 11:42:23;;;;;;;26.33;3.70;;;6.90;99.90;;;;;;5076869;28;20052;-73
2022/01/28 11:44:55;;;;;;;23.35;2.67;;;7.00;99.90;;;;;;5057747;28;20139;-73
2022/01/28 11:47:28;;;;;;;32.25;4.35;;;7.00;99.90;;;;;;5042224;28;20147;-72
2022/01/28 11:50:17;;;;;;;17.05;2.15;;;7.20;99.90;;;;;;5075901;28;20555;-73
2022/01/28 11:52:45;;;;;;;26.23;3.08;;;7.30;99.90;;;;;;5076799;28;20053;-73
2022/01/28 11:55:14;;;;;;;24.95;2.55;;;7.30;99.90;;;;;;5057919;28;20131;-73
2022/01/28 11:57:53;;;;;;;25.38;2.13;;;7.40;99.90;;;;;;5077590;28;20050;-76
2022/01/28 12:00:35;;;;;;;30.48;2.45;;;7.40;99.90;;;;;;5042182;28;20062;-74
2022/01/28 12:03:14;;;;;;;35.55;2.65;;;7.30;99.90;;;;;;5054774;28;20151;-74
2022/01/28 12:05:40;;;;;;;30.88;3.30;;;7.10;99.90;;;;;;5055320;28;20045;-73
2022/01/28 12:08:09;;;;;;;28.55;2.28;;;7.00;99.90;;;;;;5054845;28;20049;-75
2022/01/28 12:10:41;;;;;;;26.27;2.13;;;7.00;99.90;;;;;;5039192;28;20107;-74
2022/01/28 12:13:12;;;;;;;29.98;3.13;;;7.00;99.90;;;;;;5039825;28;20501;-75
2022/01/28 12:16:09;;;;;;;28.67;2.50;;;6.90;99.90;;;;;;5055387;28;20477;-74
2022/01/28 12:18:44;;;;;;;26.30;2.47;;;6.80;99.90;;;;;;5056392;28;20099;-74
2022/01/28 12:21:18;;;;;;;24.35;2.35;;;6.70;99.90;;;;;;5055713;28;20041;-74
2022/01/28 12:23:46;;;;;;;22.23;2.47;;;6.60;99.90;;;;;;5054821;28;20123;-74
2022/01/28 12:26:17;;;;;;;30.17;2.25;;;6.50;99.90;;;;;;5055232;28;20497;-72
2022/01/28 12:28:49;;;;;;;35.80;2.20;;;6.50;99.90;;;;;;5055866;28;20159;-74
2022/01/28 12:31:21;;;;;;;21.60;1.52;;;6.50;99.90;;;;;;5056410;28;20118;-72
2022/01/28 12:33:58;;;;;;;32.00;2.08;;;6.60;99.90;;;;;;5055455;28;20041;-74
2022/01/28 12:36:30;;;;;;;17.40;1.75;;;6.60;99.90;;;;;;5056562;28;20450;-74
2022/01/28 12:39:20;;;;;;;20.67;1.90;;;6.70;99.90;;;;;;5055549;28;20053;-73
2022/01/28 12:41:52;;;;;;;26.20;1.80;;;6.80;99.90;;;;;;5055283;28;20128;-73
2022/01/28 12:44:19;;;;;;;33.65;3.58;;;6.80;99.90;;;;;;5055091;28;20102;-74
2022/01/28 12:46:57;;;;;;;30.80;3.28;;;6.90;99.90;;;;;;5054242;28;20076;-74
2022/01/28 12:49:29;;;;;;;21.95;2.50;;;7.00;99.90;;;;;;5055585;28;20111;-73
2022/01/28 12:52:01;;;;;;;36.75;3.78;;;7.00;99.90;;;;;;5055832;28;20059;-73
2022/01/28 12:54:46;;;;;;;23.48;2.63;;;7.00;99.90;;;;;;5054457;28;20049;-73
2022/01/28 12:57:19;;;;;;;33.38;3.30;;;7.10;99.90;;;;;;5054773;28;20045;-73
2022/01/28 12:59:47;;;;;;;33.28;2.90;;;7.10;99.90;;;;;;5021328;28;20045;-72
2022/01/28 13:02:14;;;;;;;29.33;3.72;;;7.20;99.90;;;;;;5054115;28;20053;-73
2022/01/28 13:05:35;;;;;;;;;;;7.20;99.90;;;;;;5037833;28;20052;-73
2022/01/28 13:10:29;;;;;;;30.90;3.72;;;7.30;99.90;;;;;;5053359;28;20064;-74
2022/01/28 13:13:05;;;;;;;25.77;3.03;;;7.30;99.90;;;;;;5053997;28;20385;-73
2022/01/28 13:15:31;;;;;;;30.40;5.47;;;7.40;99.90;;;;;;5053744;28;20102;-73
2022/01/28 13:17:59;;;;;;;36.83;4.05;;;7.50;99.90;;;;;;5055225;28;20291;-72
2022/01/28 13:20:39;;;;;;;35.70;3.45;;;7.60;99.90;;;;;;5055338;28;20053;-73
2022/01/28 13:23:05;;;;;;;25.08;2.20;;;7.70;99.90;;;;;;5055445;28;20063;-75
2022/01/28 13:25:31;;;;;;;24.08;2.45;;;7.80;99.90;;;;;;5054093;28;20052;-73
2022/01/28 13:28:00;;;;;;;29.40;2.63;;;7.60;99.90;;;;;;5053937;28;20098;-74
2022/01/28 13:30:31;;;;;;;24.33;2.38;;;7.60;99.90;;;;;;5054133;28;20056;-74
2022/01/28 13:33:09;;;;;;;19.92;2.28;;;7.70;99.90;;;;;;5055137;28;20045;-74
2022/01/28 13:35:37;;;;;;;21.00;2.10;;;7.70;99.90;;;;;;5055244;28;20372;-72
2022/01/28 13:38:14;;;;;;;27.77;2.40;;;7.80;99.90;;;;;;5036934;28;20044;-75
2022/01/28 13:40:40;;;;;;;23.33;1.88;;;7.90;99.90;;;;;;5036765;28;20048;-74
2022/01/28 13:43:11;;;;;;;22.98;1.77;;;7.90;99.90;;;;;;5053106;28;20144;-74
2022/01/28 13:45:55;;;;;;;20.42;1.80;;;7.90;99.90;;;;;;5053268;28;20045;-73
2022/01/28 13:48:37;;;;;;;20.10;1.42;;;7.70;99.90;;;;;;5036649;28;20049;-74
2022/01/28 13:51:16;;;;;;;19.02;1.33;;;7.50;99.90;;;;;;5053034;28;20052;-73
2022/01/28 13:56:27;;;;;;;26.92;1.60;;;7.20;99.90;;;;;;5054025;28;20417;-74
2022/01/28 13:58:54;;;;;;;28.38;2.50;;;7.10;99.90;;;;;;5036398;28;20037;-74
2022/01/28 14:01:23;;;;;;;24.75;2.08;;;7.00;99.90;;;;;;5052873;28;20037;-74
2022/01/28 14:03:56;;;;;;;19.92;1.48;;;7.00;99.90;;;;;;5052395;28;20437;-74
2022/01/28 14:06:26;;;;;;;20.17;2.35;;;7.00;99.90;;;;;;5053520;28;20113;-72
2022/01/28 14:09:02;;;;;;;22.58;2.25;;;7.00;99.90;;;;;;5052573;28;20431;-72
2022/01/28 14:11:47;;;;;;;27.08;2.28;;;6.90;99.90;;;;;;5052386;28;20520;-72
2022/01/28 14:14:32;;;;;;;18.30;1.88;;;6.90;99.90;;;;;;5036448;28;20452;-72
2022/01/28 14:17:03;;;;;;;25.25;1.80;;;7.00;99.90;;;;;;5052797;28;20051;-74
2022/01/28 14:19:32;;;;;;;22.63;1.88;;;7.00;99.90;;;;;;5053562;28;20136;-73
2022/01/28 14:21:59;;;;;;;15.25;1.52;;;7.00;99.90;;;;;;5052108;28;20074;-74
2022/01/28 14:24:33;;;;;;;19.33;1.42;;;7.00;99.90;;;;;;5052360;28;20045;-72
2022/01/28 14:32:05;;;;;;;21.60;1.85;;;6.90;99.90;;;;;;5052249;28;20477;-73
2022/01/28 14:34:31;;;;;;;23.73;1.65;;;6.80;99.90;;;;;;5052707;28;20076;-73
2022/01/28 14:36:58;;;;;;;23.23;2.05;;;6.80;99.90;;;;;;5053142;28;20060;-74
2022/01/28 14:39:24;;;;;;;24.42;1.75;;;6.80;99.90;;;;;;5051716;28;20059;-73
2022/01/28 14:41:50;;;;;;;26.20;2.55;;;6.80;99.90;;;;;;5053272;28;20075;-73
2022/01/28 14:44:17;;;;;;;19.30;1.17;;;6.80;99.90;;;;;;5035446;28;20164;-73